Terminal Aerodrome Forecast
Issued by NWS Goodland, KS

Home | Current Version | Previous Version | Text Only | Print | Product List | Glossary On
Versions: 1 2 3 4 5 6 7 8 9 10 11 12 13 14 15 16 17 18 19 20
000
FTUS43 KGLD 252354
TAFGLD
TAF
KGLD 252354Z 2600/2624 09008KT P6SM FEW050 SCT250
     FM261100 14006KT P6SM OVC025
      TEMPO 2613/2616 OVC015
     FM261600 16008KT P6SM OVC040 PROB30 2616/2618 -TSRA OVC025CB
     FM261800 15008KT P6SM SHRA VCTS OVC040CB=

USA.gov is the U.S. government's official web portal to all federal, state and local government web resources and services.